FACO weather

Alkantpan Copper Airport
Cooperton, Northern Cape, South Africa

Public forecast

Using degrees Celsius for public forecast. Weather courtesy of forecast.io.

METAR (pilot weather report)

Report is more than 6 hours old.

Closest report is De Aar Military Airport, 94.0 nm (174.0 km) ESE. Retrieved 2019/09/22 08:40 UTC (13 hours ago):

FADY 220840Z 21012KT 9999 FEW050 16/04 Q1018

TAF (pilot weather forecast)

Closest forecast is Pierre Van Ryneveld Airport, 106.1 nm (196.5 km) NNW. Retrieved 2019/09/22 18:00 UTC (4 hours ago):

TAF FAUP 221600Z 2218/2318 16010KT CAVOK TX24/2314Z TN07/2304Z